Time;durP1;ratioP1;P1;durP2;ratioP2;P2;SDS_P1;SDS_P2;PMS_P1;PMS_P2;Temp;Humidity;BMP_temperature;BMP_pressure;BME280_temperature;BME280_humidity;BME280_pressure;Samples;Min_cycle;Max_cycle;Signal;HPM_P1;HPM_P2
2023/05/25 00:00:17;;;;;;;7.27;2.50;;;9.40;99.90;;;10.17;100.00;98734.50;5048275;28;20458;-82
2023/05/25 00:02:47;;;;;;;7.80;2.80;;;9.40;99.90;;;10.16;100.00;98736.28;5039759;28;20472;-81
2023/05/25 00:05:19;;;;;;;9.30;3.13;;;9.40;99.90;;;10.16;100.00;98730.22;5043536;28;20475;-82
2023/05/25 00:07:47;;;;;;;9.20;2.80;;;9.40;99.90;;;10.16;100.00;98732.84;5039101;28;21039;-81
2023/05/25 00:10:16;;;;;;;13.53;3.30;;;9.40;99.90;;;10.17;100.00;98734.50;5045442;28;20511;-81
2023/05/25 00:12:44;;;;;;;9.00;3.10;;;9.40;99.90;;;10.15;100.00;98723.38;5043814;28;20970;-82
2023/05/25 00:15:13;;;;;;;12.13;3.27;;;9.40;99.90;;;10.15;100.00;98732.03;5045568;28;20468;-81
2023/05/25 00:17:42;;;;;;;9.30;2.90;;;9.40;99.90;;;10.15;100.00;98729.41;5043053;28;20496;-81
2023/05/25 00:20:13;;;;;;;5.77;2.67;;;9.40;99.90;;;10.16;100.00;98735.47;5046531;28;21530;-81
2023/05/25 00:22:46;;;;;;;10.43;4.47;;;9.50;99.90;;;10.16;100.00;98731.06;5043554;28;20458;-81
2023/05/25 00:25:15;;;;;;;7.60;2.80;;;9.40;99.90;;;10.15;100.00;98732.03;5046363;28;20468;-81
2023/05/25 00:27:44;;;;;;;11.00;2.53;;;9.50;99.90;;;10.13;100.00;98729.53;5043387;28;20534;-81
2023/05/25 00:30:13;;;;;;;10.20;3.20;;;9.40;99.90;;;10.15;100.00;98726.81;5041721;28;20551;-81
2023/05/25 00:32:41;;;;;;;11.57;3.30;;;9.40;99.90;;;10.17;100.00;98735.28;5038217;28;20465;-81
2023/05/25 00:35:10;;;;;;;6.90;2.50;;;9.40;99.90;;;10.16;100.00;98725.81;5037237;28;20866;-81
2023/05/25 00:37:39;;;;;;;6.20;2.40;;;9.40;99.90;;;10.18;100.00;98731.69;5033937;28;20580;-82
2023/05/25 00:40:15;;;;;;;8.50;3.17;;;9.40;99.90;;;10.17;100.00;98735.28;5035496;28;20471;-81
2023/05/25 00:42:44;;;;;;;13.10;3.10;;;9.40;99.90;;;10.18;100.00;98736.91;5038343;28;20468;-81
2023/05/25 00:45:14;;;;;;;9.10;2.90;;;9.40;99.90;;;10.15;100.00;98732.03;5041162;28;20881;-81
2023/05/25 00:47:44;;;;;;;7.80;2.80;;;9.30;99.90;;;10.15;100.00;98732.03;5041516;28;20472;-81
2023/05/25 00:50:18;;;;;;;12.07;3.13;;;9.30;99.90;;;10.14;100.00;98730.38;5043718;28;20464;-81
2023/05/25 00:52:47;;;;;;;7.53;2.63;;;9.30;99.90;;;10.12;100.00;98724.50;5041259;28;20457;-81
2023/05/25 00:55:22;;;;;;;4.40;2.43;;;9.30;99.90;;;10.07;100.00;98725.00;5043213;28;20882;-82
2023/05/25 00:57:55;;;;;;;8.07;2.67;;;9.30;99.90;;;10.08;100.00;98725.81;5045907;28;20502;-82
2023/05/25 01:00:25;;;;;;;10.30;3.27;;;9.30;99.90;;;10.04;100.00;98725.31;5047245;28;20470;-82
2023/05/25 01:02:58;;;;;;;8.50;2.43;;;9.30;99.90;;;10.04;100.00;98719.28;5044467;28;20461;-81
2023/05/25 01:05:30;;;;;;;11.60;3.40;;;9.30;99.90;;;10.05;100.00;98726.97;5038681;28;20978;-81
2023/05/25 01:08:05;;;;;;;12.20;3.17;;;9.30;99.90;;;10.04;100.00;98725.31;5044545;28;20461;-82
2023/05/25 01:10:39;;;;;;;7.43;2.73;;;9.30;99.90;;;10.04;100.00;98724.50;5043432;28;20483;-82
2023/05/25 01:13:10;;;;;;;8.90;2.80;;;9.30;99.90;;;10.04;100.00;98719.28;5042447;28;20461;-82
2023/05/25 01:15:40;;;;;;;9.70;3.13;;;9.20;99.90;;;10.03;100.00;98712.44;5042951;28;20468;-81
2023/05/25 01:18:13;;;;;;;12.93;3.27;;;9.30;99.90;;;10.02;100.00;98716.03;5046668;28;20580;-81
2023/05/25 01:21:00;;;;;;;8.13;2.87;;;9.30;99.90;;;9.95;100.00;98722.91;5048349;28;20460;-81
2023/05/25 01:23:36;;;;;;;5.73;3.73;;;9.20;99.90;;;9.97;100.00;98718.31;5045358;28;20465;-81
2023/05/25 01:26:13;;;;;;;6.63;3.67;;;9.10;99.90;;;9.96;100.00;98721.94;5047173;28;20460;-81
2023/05/25 01:28:50;;;;;;;7.20;3.00;;;9.10;99.90;;;9.95;100.00;98717.69;5048203;28;21029;-81
2023/05/25 01:31:22;;;;;;;9.17;2.37;;;9.10;99.90;;;9.91;100.00;98716.38;5044299;28;20500;-82
2023/05/25 01:33:53;;;;;;;4.30;2.30;;;9.10;99.90;;;9.89;100.00;98713.91;5041041;28;20485;-81
2023/05/25 01:36:23;;;;;;;5.70;2.53;;;9.10;99.90;;;9.89;100.00;98716.53;5041805;28;20878;-81
2023/05/25 01:38:53;;;;;;;8.73;2.70;;;9.10;99.90;;;9.83;100.00;98717.19;5038145;28;20540;-81
2023/05/25 01:41:22;;;;;;;5.00;2.90;;;9.00;99.90;;;9.81;100.00;98721.78;5040003;28;20606;-81
2023/05/25 01:43:53;;;;;;;9.23;3.10;;;9.10;99.90;;;9.79;100.00;98730.78;5042002;28;20953;-81
2023/05/25 01:46:35;;;;;;;10.17;2.97;;;9.10;99.90;;;9.75;100.00;98724.25;5039381;28;21276;-81
2023/05/25 01:49:16;;;;;;;5.40;2.30;;;9.00;99.90;;;9.68;100.00;98731.09;5038324;28;20469;-81
2023/05/25 01:52:00;;;;;;;6.03;3.17;;;8.90;99.90;;;9.65;100.00;98734.84;5041922;28;20870;-81
2023/05/25 01:54:37;;;;;;;3.90;2.60;;;8.90;99.90;;;9.67;100.00;98732.88;5038991;28;20465;-81
2023/05/25 01:57:12;;;;;;;7.20;2.50;;;8.90;99.90;;;9.63;100.00;98731.59;5031984;28;20484;-81
2023/05/25 01:59:45;;;;;;;7.90;2.63;;;8.90;99.90;;;9.60;100.00;98731.91;5037960;28;20466;-81
2023/05/25 02:02:18;;;;;;;6.63;3.13;;;8.80;99.90;;;9.52;100.00;98731.91;5035876;28;20864;-82
2023/05/25 02:04:49;;;;;;;7.40;2.93;;;8.80;99.90;;;9.50;100.00;98732.09;5040618;28;20687;-81
2023/05/25 02:07:19;;;;;;;5.60;2.83;;;8.80;99.90;;;9.46;100.00;98730.78;5035312;28;20460;-81
2023/05/25 02:09:48;;;;;;;6.70;3.53;;;8.80;99.90;;;9.45;100.00;98738.75;5033104;28;20887;-81
2023/05/25 02:12:18;;;;;;;11.87;3.10;;;8.80;99.90;;;9.43;100.00;98736.31;5035687;28;21007;-81
2023/05/25 02:14:47;;;;;;;5.30;2.70;;;8.70;99.90;;;9.40;100.00;98731.44;5031785;28;20461;-81
2023/05/25 02:17:18;;;;;;;5.87;3.00;;;8.70;99.90;;;9.34;100.00;98736.47;5037218;28;20503;-81
2023/05/25 02:19:51;;;;;;;5.47;3.80;;;8.60;99.90;;;9.36;100.00;98731.91;5038509;28;20481;-81
2023/05/25 02:22:22;;;;;;;3.87;2.83;;;8.60;99.90;;;9.36;100.00;98732.72;5037366;28;20512;-81
2023/05/25 02:24:50;;;;;;;6.77;2.77;;;8.60;99.90;;;9.33;100.00;98734.84;5040270;28;21212;-81
2023/05/25 02:27:19;;;;;;;6.63;2.40;;;8.60;99.90;;;9.29;100.00;98734.34;5040407;28;20905;-81
2023/05/25 02:29:48;;;;;;;5.73;2.93;;;8.70;99.90;;;9.28;100.00;98740.53;5035177;28;20461;-81
2023/05/25 02:32:17;;;;;;;6.07;2.97;;;8.50;99.90;;;9.29;100.00;98739.56;5034625;28;20472;-81
2023/05/25 02:34:47;;;;;;;9.30;2.87;;;8.50;99.90;;;9.26;100.00;98739.91;5033914;28;21076;-81
2023/05/25 02:37:16;;;;;;;13.30;2.53;;;8.50;99.90;;;9.23;100.00;98737.63;5031402;28;20875;-81
2023/05/25 02:39:48;;;;;;;7.90;2.83;;;8.50;99.90;;;9.22;100.00;98738.59;5031031;28;20472;-82
2023/05/25 02:42:17;;;;;;;4.77;2.93;;;8.50;99.90;;;9.21;100.00;98731.72;5037037;28;20469;-81
2023/05/25 02:44:47;;;;;;;5.90;2.67;;;8.50;99.90;;;9.20;100.00;98739.72;5031971;28;21065;-81
2023/05/25 02:47:16;;;;;;;6.33;2.43;;;8.40;99.90;;;9.17;100.00;98740.84;5033855;28;20496;-81
2023/05/25 02:49:46;;;;;;;6.70;2.73;;;8.40;99.90;;;9.14;100.00;98741.16;5034578;28;20453;-83
2023/05/25 02:52:14;;;;;;;6.97;2.87;;;8.40;99.90;;;9.12;100.00;98737.91;5032424;28;20479;-81
2023/05/25 02:54:43;;;;;;;7.13;3.63;;;8.40;99.90;;;9.08;100.00;98741.81;5034173;28;20930;-81
2023/05/25 02:57:13;;;;;;;11.77;2.67;;;8.40;99.90;;;9.04;100.00;98740.50;5034410;28;21007;-81
2023/05/25 02:59:42;;;;;;;6.00;2.80;;;8.40;99.90;;;9.03;100.00;98741.47;5036407;28;21017;-81
2023/05/25 03:02:12;;;;;;;4.07;2.60;;;8.30;99.90;;;9.02;100.00;98742.47;5039586;28;20840;-81
2023/05/25 03:04:40;;;;;;;7.60;2.63;;;8.30;99.90;;;8.98;100.00;98748.97;5036114;28;20453;-81
2023/05/25 03:07:10;;;;;;;5.97;2.77;;;8.30;99.90;;;8.94;100.00;98745.88;5037626;28;20703;-80
2023/05/25 03:09:39;;;;;;;7.30;3.30;;;8.30;99.90;;;8.94;100.00;98748.47;5037275;28;20465;-81
2023/05/25 03:12:08;;;;;;;5.87;2.40;;;8.20;99.90;;;8.93;100.00;98743.41;5035823;28;21070;-81
2023/05/25 03:14:38;;;;;;;6.13;2.70;;;8.20;99.90;;;8.92;100.00;98739.19;5035748;28;20548;-81
2023/05/25 03:17:08;;;;;;;4.20;2.53;;;8.20;99.90;;;8.90;100.00;98743.72;5033035;28;20534;-81
2023/05/25 03:19:37;;;;;;;9.40;2.80;;;8.20;99.90;;;8.89;100.00;98742.09;5033695;28;20840;-81
2023/05/25 03:22:06;;;;;;;8.73;3.43;;;8.20;99.90;;;8.89;100.00;98749.91;5036128;28;21011;-80
2023/05/25 03:24:40;;;;;;;5.00;2.57;;;8.20;99.90;;;8.90;100.00;98751.56;5037225;28;20830;-79
2023/05/25 03:27:10;;;;;;;5.73;2.80;;;8.20;99.90;;;8.89;100.00;98748.13;5039578;28;21084;-79
2023/05/25 03:29:41;;;;;;;7.63;3.10;;;8.20;99.90;;;8.88;100.00;98750.91;5023102;28;20481;-80
2023/05/25 03:32:09;;;;;;;5.50;2.97;;;8.20;99.90;;;8.86;100.00;98758.06;5038914;28;20821;-80
2023/05/25 03:34:39;;;;;;;6.30;2.80;;;8.10;99.90;;;8.84;100.00;98760.84;5039905;28;20456;-79
2023/05/25 03:37:09;;;;;;;8.40;3.30;;;8.10;99.90;;;8.82;100.00;98756.72;5036743;28;20972;-81
2023/05/25 03:39:37;;;;;;;5.30;3.00;;;8.10;99.90;;;8.80;100.00;98751.69;5042262;28;20951;-80
2023/05/25 03:42:07;;;;;;;7.70;3.20;;;8.10;99.90;;;8.78;100.00;98753.63;5044659;28;21257;-79
2023/05/25 03:44:35;;;;;;;7.50;3.00;;;8.10;99.90;;;8.76;100.00;98757.38;5042398;28;20494;-79
2023/05/25 03:47:08;;;;;;;5.70;2.67;;;8.10;99.90;;;8.74;100.00;98751.50;5042532;28;20472;-79
2023/05/25 03:49:37;;;;;;;9.53;2.67;;;8.00;99.90;;;8.74;100.00;98754.13;5043888;28;20464;-80
2023/05/25 03:52:07;;;;;;;7.27;2.60;;;8.00;99.90;;;8.74;100.00;98751.50;5042865;28;20461;-79
2023/05/25 03:54:36;;;;;;;6.07;3.03;;;8.00;99.90;;;8.71;100.00;98746.63;5042225;28;20966;-79
2023/05/25 03:57:06;;;;;;;4.63;2.90;;;8.00;99.90;;;8.69;100.00;98753.75;5045042;28;20531;-79
2023/05/25 03:59:35;;;;;;;4.70;3.23;;;7.90;99.90;;;8.70;100.00;98752.78;5045747;28;20503;-80
2023/05/25 04:02:05;;;;;;;4.27;2.87;;;7.90;99.90;;;8.70;100.00;98763.22;5041353;28;20468;-79
2023/05/25 04:04:37;;;;;;;5.90;2.40;;;8.00;99.90;;;8.70;100.00;98764.03;5044872;28;20587;-80
2023/05/25 04:07:07;;;;;;;11.50;5.83;;;7.90;99.90;;;8.68;100.00;98763.38;5043848;28;21383;-80
2023/05/25 04:09:37;;;;;;;16.63;3.77;;;8.00;99.90;;;8.67;100.00;98764.38;5042224;28;20465;-79
2023/05/25 04:12:08;;;;;;;9.17;3.03;;;8.00;99.90;;;8.66;100.00;98772.31;5039170;28;20473;-80
2023/05/25 04:14:37;;;;;;;8.70;3.70;;;7.90;99.90;;;8.64;100.00;98769.06;5046657;28;20467;-81
2023/05/25 04:17:06;;;;;;;3.97;2.77;;;7.90;99.90;;;8.64;100.00;98769.91;5043476;28;20912;-80
2023/05/25 04:19:38;;;;;;;5.90;2.53;;;7.90;99.90;;;8.64;100.00;98774.28;5043631;28;20527;-80
2023/05/25 04:22:07;;;;;;;9.23;2.77;;;7.90;99.90;;;8.62;100.00;98777.03;5039107;28;20561;-79
2023/05/25 04:24:36;;;;;;;4.40;2.87;;;7.90;99.90;;;8.60;100.00;98773.78;5040297;28;20469;-80
2023/05/25 04:27:06;;;;;;;7.63;3.20;;;7.90;99.90;;;8.59;100.00;98783.38;5045424;28;20465;-80
2023/05/25 04:29:36;;;;;;;10.10;4.17;;;7.90;99.90;;;8.58;100.00;98792.19;5042834;28;21253;-80
2023/05/25 04:32:08;;;;;;;5.90;3.37;;;7.90;99.90;;;8.58;100.00;98789.56;5039309;28;20462;-81
2023/05/25 04:34:38;;;;;;;15.90;3.87;;;7.90;99.90;;;8.62;100.00;98797.06;5042374;28;21026;-81
2023/05/25 04:37:08;;;;;;;7.20;3.33;;;7.90;99.90;;;8.64;100.00;98795.16;5045760;28;20465;-80
2023/05/25 04:39:37;;;;;;;3.40;3.10;;;7.90;99.90;;;8.64;100.00;98795.97;5048676;28;20924;-80
2023/05/25 04:42:06;;;;;;;13.70;3.67;;;7.90;99.90;;;8.66;100.00;98803.63;5048987;28;20484;-80
2023/05/25 04:44:36;;;;;;;6.70;3.70;;;7.90;99.90;;;8.67;100.00;98811.28;5050924;28;20477;-81
2023/05/25 04:47:06;;;;;;;7.37;3.50;;;8.00;99.90;;;8.69;100.00;98813.72;5051306;28;20465;-81
2023/05/25 04:49:36;;;;;;;3.93;2.83;;;8.00;99.90;;;8.71;100.00;98817.00;5046862;28;20527;-81
2023/05/25 04:52:07;;;;;;;13.30;4.50;;;8.00;99.90;;;8.75;100.00;98818.31;5046365;28;21155;-80
2023/05/25 04:54:37;;;;;;;8.83;3.33;;;8.00;99.90;;;8.77;100.00;98821.59;5048272;28;20986;-80
2023/05/25 04:57:06;;;;;;;5.20;3.20;;;8.00;99.90;;;8.79;100.00;98814.41;5050124;28;20470;-80
2023/05/25 04:59:35;;;;;;;5.93;3.30;;;8.10;99.90;;;8.84;100.00;98823.44;5048196;28;20571;-80
2023/05/25 05:02:04;;;;;;;10.90;4.30;;;8.10;99.90;;;8.87;100.00;98819.69;5047138;28;20453;-81
2023/05/25 05:04:34;;;;;;;4.27;3.33;;;8.10;99.90;;;8.92;100.00;98827.88;5046261;28;20519;-80
2023/05/25 05:07:06;;;;;;;10.50;4.13;;;8.20;99.90;;;8.96;100.00;98829.97;5053391;28;20557;-80
2023/05/25 05:09:36;;;;;;;8.70;3.10;;;8.20;99.90;;;9.01;100.00;98829.50;5049977;28;20979;-80
2023/05/25 05:12:05;;;;;;;6.90;3.17;;;8.20;99.90;;;9.02;100.00;98826.72;5046083;28;20499;-82
2023/05/25 05:14:34;;;;;;;7.83;3.47;;;8.20;99.90;;;9.08;100.00;98836.56;5046126;28;20473;-80
2023/05/25 05:17:03;;;;;;;6.27;3.10;;;8.30;99.90;;;9.11;100.00;98838.03;5049666;28;20492;-80
2023/05/25 05:19:33;;;;;;;7.27;3.33;;;8.30;99.90;;;9.17;100.00;98836.56;5047413;28;20495;-84
2023/05/25 05:22:01;;;;;;;8.50;3.60;;;8.40;99.90;;;9.21;100.00;98841.31;5044595;28;20837;-80
2023/05/25 05:24:31;;;;;;;8.03;5.70;;;8.40;99.90;;;9.26;100.00;98836.47;5048168;28;20905;-80
2023/05/25 05:27:01;;;;;;;10.63;3.93;;;8.50;99.90;;;9.29;100.00;98843.97;5046626;28;20465;-81
2023/05/25 05:29:33;;;;;;;12.20;3.80;;;8.50;99.90;;;9.35;100.00;98847.72;5047806;28;20456;-81
2023/05/25 05:32:02;;;;;;;7.53;3.60;;;8.60;99.90;;;9.39;100.00;98849.03;5049703;28;21050;-80
2023/05/25 05:34:31;;;;;;;10.53;4.13;;;8.60;99.90;;;9.44;100.00;98849.41;5048304;28;20472;-80
2023/05/25 05:37:00;;;;;;;7.63;3.53;;;8.70;99.90;;;9.50;100.00;98853.97;5048295;28;20569;-80
2023/05/25 05:39:31;;;;;;;14.40;4.60;;;8.70;99.90;;;9.57;100.00;98847.94;5046522;28;20489;-80
2023/05/25 05:42:00;;;;;;;12.37;4.80;;;8.80;99.90;;;9.60;100.00;98847.63;5045190;28;20476;-80
2023/05/25 05:44:28;;;;;;;16.97;4.53;;;8.80;99.90;;;9.67;100.00;98849.59;5047066;28;20488;-80
2023/05/25 05:46:59;;;;;;;9.73;3.60;;;8.90;99.90;;;9.73;100.00;98857.59;5044304;28;20617;-80
2023/05/25 05:49:30;;;;;;;9.63;4.50;;;9.00;99.90;;;9.76;100.00;98857.25;5049459;28;20623;-80
2023/05/25 05:51:59;;;;;;;7.73;3.27;;;9.00;99.90;;;9.82;100.00;98847.97;5044994;28;20531;-80
2023/05/25 05:54:28;;;;;;;10.87;3.27;;;9.00;99.90;;;9.88;100.00;98852.53;5047819;28;20465;-81
2023/05/25 05:56:58;;;;;;;7.23;3.70;;;9.10;99.90;;;9.95;100.00;98850.91;5045724;28;20468;-81
2023/05/25 05:59:26;;;;;;;14.80;3.73;;;9.20;99.90;;;9.98;100.00;98846.19;5047253;28;20481;-80
2023/05/25 06:01:55;;;;;;;8.27;4.00;;;9.20;99.90;;;10.04;100.00;98857.75;5047730;28;20457;-81
2023/05/25 06:04:27;;;;;;;8.63;3.60;;;9.30;99.90;;;10.09;100.00;98852.88;5044423;28;20477;-81
2023/05/25 06:06:57;;;;;;;12.43;5.07;;;9.30;99.90;;;10.17;100.00;98857.31;5045827;28;20471;-80
2023/05/25 06:09:26;;;;;;;7.83;3.37;;;9.50;99.90;;;10.23;100.00;98859.28;5045939;28;20473;-80
2023/05/25 06:11:54;;;;;;;9.20;3.23;;;9.50;99.90;;;10.27;100.00;98865.81;5046288;28;20470;-81
2023/05/25 06:14:25;;;;;;;9.83;3.37;;;9.50;99.90;;;10.33;100.00;98865.97;5046238;28;20457;-80
2023/05/25 06:16:56;;;;;;;10.03;3.70;;;9.60;99.90;;;10.39;100.00;98860.06;5045212;28;20480;-81
2023/05/25 06:19:25;;;;;;;8.13;3.20;;;9.70;99.90;;;10.44;100.00;98857.78;5047794;28;20537;-80
2023/05/25 06:21:54;;;;;;;9.13;3.40;;;9.70;99.90;;;10.50;100.00;98866.75;5048974;28;20914;-80
2023/05/25 06:24:22;;;;;;;8.20;3.43;;;9.70;99.90;;;10.57;100.00;98862.50;5047311;28;20492;-80
2023/05/25 06:26:51;;;;;;;8.93;2.60;;;9.80;99.90;;;10.63;100.00;98861.81;5046451;28;20464;-81
2023/05/25 06:29:19;;;;;;;10.90;3.93;;;9.80;99.90;;;10.69;100.00;98857.72;5048207;28;20476;-80
2023/05/25 06:31:50;;;;;;;11.97;3.27;;;9.90;99.90;;;10.75;100.00;98854.44;5047768;28;20469;-80
2023/05/25 06:34:18;;;;;;;10.23;3.70;;;10.00;99.90;;;10.81;100.00;98857.19;5048686;28;20457;-80
2023/05/25 06:36:47;;;;;;;5.87;2.77;;;10.00;99.90;;;10.87;100.00;98863.53;5047342;28;20465;-80
2023/05/25 06:39:16;;;;;;;5.93;3.03;;;10.10;99.90;;;10.94;100.00;98859.25;5048031;28;20479;-82
2023/05/25 06:41:45;;;;;;;7.83;3.07;;;10.20;99.90;;;10.99;100.00;98862.22;5048296;28;20962;-80
2023/05/25 06:44:15;;;;;;;12.93;3.53;;;10.20;99.90;;;11.05;100.00;98857.09;5048042;28;20494;-80
2023/05/25 06:46:43;;;;;;;13.37;4.07;;;10.30;99.90;;;11.12;100.00;98862.47;5045464;28;20971;-80
2023/05/25 06:49:13;;;;;;;6.60;3.23;;;10.30;99.90;;;11.19;100.00;98860.81;5047629;28;20920;-82
2023/05/25 06:51:42;;;;;;;6.90;2.73;;;10.50;99.90;;;11.24;100.00;98871.59;5044680;28;20468;-80
2023/05/25 06:54:13;;;;;;;8.00;3.03;;;10.50;99.90;;;11.31;100.00;98867.31;5044247;28;21076;-80
2023/05/25 06:56:42;;;;;;;18.17;4.23;;;10.50;99.90;;;11.40;100.00;98860.22;5044589;28;20468;-80
2023/05/25 06:59:11;;;;;;;12.43;3.10;;;10.70;99.90;;;11.46;100.00;98862.97;5046267;28;20460;-80
2023/05/25 07:01:39;;;;;;;6.37;2.70;;;10.80;99.90;;;11.53;100.00;98858.66;5043557;28;20469;-81
2023/05/25 07:04:08;;;;;;;9.40;3.23;;;10.90;99.90;;;11.59;100.00;98865.03;5043505;28;20465;-81
2023/05/25 07:06:38;;;;;;;6.33;2.90;;;10.80;99.90;;;11.68;100.00;98853.50;5045281;28;20465;-80
2023/05/25 07:09:07;;;;;;;11.90;2.80;;;11.00;99.90;;;11.76;100.00;98855.28;5045606;28;20475;-81
2023/05/25 07:11:36;;;;;;;6.43;2.80;;;11.10;99.90;;;11.82;100.00;98867.69;5046042;28;20481;-80
2023/05/25 07:14:05;;;;;;;8.00;2.43;;;11.10;99.90;;;11.89;100.00;98864.19;5049029;28;20474;-80
2023/05/25 07:16:33;;;;;;;3.97;2.37;;;11.20;99.90;;;11.93;100.00;98851.56;5045554;28;20507;-80
2023/05/25 07:19:02;;;;;;;4.20;2.50;;;11.20;99.90;;;11.99;100.00;98856.09;5046766;28;20474;-81
2023/05/25 07:21:32;;;;;;;17.00;3.00;;;11.30;99.90;;;12.03;100.00;98854.75;5046379;28;20501;-80
2023/05/25 07:24:03;;;;;;;4.30;2.23;;;11.30;99.90;;;12.15;100.00;98849.91;5045173;28;20469;-80
2023/05/25 07:26:35;;;;;;;9.10;3.20;;;11.50;99.90;;;12.23;100.00;98858.50;5045124;28;20570;-80
2023/05/25 07:29:04;;;;;;;8.33;2.90;;;11.50;99.90;;;12.30;100.00;98848.13;5045058;28;20478;-80
2023/05/25 07:31:35;;;;;;;8.30;3.50;;;11.60;99.90;;;12.37;100.00;98849.84;5046820;28;20460;-80
2023/05/25 07:34:04;;;;;;;4.07;2.50;;;11.70;99.90;;;12.42;100.00;98852.78;5047860;28;20453;-80
2023/05/25 07:36:33;;;;;;;6.80;3.20;;;11.80;99.90;;;12.51;100.00;98858.75;5045464;28;20465;-80
2023/05/25 07:39:03;;;;;;;8.10;2.23;;;11.90;99.90;;;12.58;100.00;98857.84;5046501;28;20465;-80
2023/05/25 07:41:32;;;;;;;5.70;2.70;;;12.00;99.90;;;12.67;100.00;98853.31;5050838;28;20511;-80
2023/05/25 07:44:01;;;;;;;6.53;2.33;;;12.20;99.90;;;12.73;100.00;98841.31;5050868;28;20562;-80
2023/05/25 07:46:30;;;;;;;9.17;3.00;;;12.10;99.90;;;12.80;100.00;98855.34;5052145;28;20460;-80
2023/05/25 07:49:02;;;;;;;15.63;3.27;;;12.20;99.90;;;12.90;100.00;98855.88;5049635;28;20544;-80
2023/05/25 07:51:31;;;;;;;4.67;2.60;;;12.30;99.90;;;12.91;100.00;98852.25;5048784;28;20514;-80
2023/05/25 07:54:00;;;;;;;8.43;3.10;;;12.20;99.90;;;12.95;100.00;98853.50;5050043;28;20465;-80
2023/05/25 07:56:30;;;;;;;6.17;2.43;;;12.30;99.90;;;12.96;100.00;98850.72;5047766;28;20963;-80
2023/05/25 07:58:59;;;;;;;4.97;2.60;;;12.20;99.90;;;13.01;100.00;98856.25;5048473;28;20467;-80
2023/05/25 08:01:28;;;;;;;6.40;2.43;;;12.30;99.90;;;13.10;100.00;98855.16;5048168;28;20495;-80
2023/05/25 08:03:57;;;;;;;9.00;2.87;;;12.40;99.90;;;13.15;100.00;98846.75;5048547;28;20469;-81
2023/05/25 08:06:26;;;;;;;8.23;2.60;;;12.50;99.90;;;13.22;99.79;98852.06;5047514;28;20471;-80
2023/05/25 08:08:54;;;;;;;3.63;2.30;;;12.50;99.90;;;13.25;95.68;98849.06;5047067;28;20838;-80
2023/05/25 08:11:25;;;;;;;7.40;3.10;;;12.50;99.90;;;13.24;95.89;98853.50;5046979;28;20460;-80
2023/05/25 08:13:55;;;;;;;16.17;2.93;;;12.50;99.90;;;13.26;95.13;98846.25;5048084;28;20507;-80
2023/05/25 08:16:24;;;;;;;6.70;2.60;;;12.50;99.90;;;13.34;96.29;98847.97;5051348;28;20457;-80
2023/05/25 08:18:52;;;;;;;6.53;2.77;;;12.60;99.90;;;13.36;96.43;98846.78;5047151;28;20556;-80
2023/05/25 08:21:21;;;;;;;4.60;2.10;;;12.60;99.90;;;13.45;94.80;98853.56;5048764;28;20571;-79
2023/05/25 08:23:51;;;;;;;7.30;2.50;;;12.70;99.90;;;13.48;93.18;98847.94;5049115;28;20483;-80
2023/05/25 08:26:19;;;;;;;5.60;2.33;;;12.70;99.90;;;13.54;94.05;98855.06;5053228;28;20476;-80
2023/05/25 08:28:57;;;;;;;7.47;2.73;;;12.80;99.90;;;13.55;90.49;98848.00;5051292;28;20464;-80
2023/05/25 08:31:26;;;;;;;5.90;2.70;;;12.60;99.90;;;13.57;89.37;98844.19;5052231;28;20576;-80
2023/05/25 08:33:55;;;;;;;11.73;3.30;;;12.70;99.90;;;13.60;87.43;98854.34;5050484;28;20968;-80
2023/05/25 08:36:24;;;;;;;4.53;2.50;;;12.70;99.90;;;13.63;87.12;98844.44;5050858;28;20473;-82
2023/05/25 08:38:53;;;;;;;6.33;1.80;;;12.80;99.90;;;13.67;87.99;98843.06;5049958;28;20514;-80
2023/05/25 08:41:22;;;;;;;7.67;2.30;;;12.80;99.90;;;13.68;88.50;98845.50;5049303;28;21117;-80
2023/05/25 08:43:51;;;;;;;3.50;2.03;;;12.90;99.90;;;13.75;88.02;98840.31;5050736;28;20519;-80
2023/05/25 08:46:30;;;;;;;5.17;2.20;;;13.00;99.90;;;13.83;88.10;98842.81;5049387;28;20807;-80
2023/05/25 08:49:05;;;;;;;8.13;2.40;;;13.10;99.90;;;13.92;87.32;98847.75;5046682;28;20494;-80
2023/05/25 08:51:38;;;;;;;5.50;2.53;;;13.20;99.90;;;13.99;86.25;98853.06;5050250;28;20464;-80
2023/05/25 08:54:10;;;;;;;6.20;2.50;;;13.30;99.90;;;14.03;85.65;98860.41;5048351;28;20561;-80
2023/05/25 08:56:50;;;;;;;9.30;2.40;;;13.30;99.90;;;14.11;85.11;98852.41;5047118;28;20487;-80
2023/05/25 08:59:32;;;;;;;5.87;2.50;;;13.50;99.70;;;14.16;85.11;98859.69;5047379;28;21127;-80
2023/05/25 09:02:21;;;;;;;6.43;3.13;;;13.50;99.90;;;14.19;88.67;98854.09;5045985;28;20496;-80
2023/05/25 09:04:50;;;;;;;10.90;2.60;;;13.50;99.90;;;14.24;94.41;98858.75;5046393;28;20897;-81
2023/05/25 09:07:20;;;;;;;8.73;3.10;;;13.50;99.90;;;14.26;99.87;98854.13;5049432;28;20464;-80
2023/05/25 09:09:49;;;;;;;9.17;3.47;;;13.60;99.90;;;14.29;100.00;98854.56;5047851;28;20469;-80
2023/05/25 09:12:20;;;;;;;8.83;2.50;;;13.70;99.90;;;14.32;100.00;98853.38;5046170;28;20485;-80
2023/05/25 09:14:49;;;;;;;10.40;4.00;;;13.80;99.90;;;14.33;100.00;98858.47;5048396;28;20884;-80
2023/05/25 09:17:20;;;;;;;13.50;3.30;;;13.80;99.90;;;14.32;100.00;98859.44;5048536;28;20469;-80
2023/05/25 09:19:50;;;;;;;8.50;3.57;;;13.60;99.90;;;14.37;100.00;98866.81;5048295;28;20469;-80
2023/05/25 09:22:19;;;;;;;8.30;3.37;;;13.70;99.90;;;14.38;100.00;98861.34;5050564;28;20495;-80
2023/05/25 09:24:49;;;;;;;6.00;2.80;;;13.80;99.90;;;14.40;100.00;98871.69;5049275;28;20473;-80
2023/05/25 09:27:20;;;;;;;10.40;3.80;;;13.80;99.90;;;14.42;100.00;98875.75;5045660;28;20452;-80
2023/05/25 09:29:50;;;;;;;8.50;2.70;;;13.70;99.90;;;14.45;100.00;98870.09;5049437;28;20984;-81
2023/05/25 09:32:20;;;;;;;15.67;3.40;;;13.80;99.90;;;14.47;100.00;98873.34;5047232;28;20463;-80
2023/05/25 09:34:52;;;;;;;7.10;3.00;;;13.80;99.90;;;14.47;100.00;98878.59;5049135;28;20587;-80
2023/05/25 09:37:21;;;;;;;11.57;3.03;;;13.80;99.90;;;14.47;100.00;98875.19;5047726;28;20463;-80
2023/05/25 09:39:52;;;;;;;6.87;3.20;;;13.70;99.90;;;14.53;100.00;98883.13;5047671;28;20540;-80
2023/05/25 09:42:21;;;;;;;5.07;2.73;;;13.90;99.90;;;14.54;100.00;98874.19;5046078;28;20521;-80
2023/05/25 09:44:50;;;;;;;6.77;3.33;;;13.90;99.90;;;14.59;100.00;98874.47;5046617;28;20481;-80
2023/05/25 09:47:20;;;;;;;9.80;3.50;;;14.00;99.90;;;14.60;100.00;98880.53;5046625;28;20465;-80
2023/05/25 09:49:50;;;;;;;4.60;2.90;;;13.90;99.90;;;14.61;100.00;98880.34;5045839;28;20473;-80
2023/05/25 09:52:19;;;;;;;6.47;3.23;;;13.80;99.90;;;14.65;100.00;98886.03;5047727;28;20463;-80
2023/05/25 09:54:50;;;;;;;16.87;4.37;;;14.00;99.90;;;14.64;100.00;98881.78;5048121;28;20524;-80
2023/05/25 09:57:20;;;;;;;8.63;3.30;;;13.90;99.90;;;14.68;100.00;98872.50;5048816;28;20476;-80
2023/05/25 09:59:49;;;;;;;18.53;3.70;;;13.90;99.90;;;14.76;100.00;98876.78;5052786;28;20469;-79
2023/05/25 10:02:19;;;;;;;6.43;3.00;;;14.10;99.90;;;14.81;100.00;98877.03;5050507;28;20995;-80
2023/05/25 10:04:48;;;;;;;10.47;3.77;;;14.10;99.90;;;14.86;100.00;98872.81;5046348;28;20473;-81
2023/05/25 10:07:17;;;;;;;13.30;2.77;;;14.10;99.90;;;14.91;100.00;98873.03;5049487;28;20473;-81
2023/05/25 10:09:49;;;;;;;4.13;2.77;;;14.20;99.90;;;14.99;100.00;98879.97;5050621;28;20983;-80
2023/05/25 10:12:20;;;;;;;4.07;3.00;;;14.40;99.90;;;14.99;98.78;98879.97;5045949;28;20979;-80
2023/05/25 10:14:53;;;;;;;8.83;3.60;;;14.30;99.90;;;15.03;97.35;98874.09;5046229;28;20823;-81
2023/05/25 10:17:24;;;;;;;12.13;3.30;;;14.40;99.90;;;15.09;96.13;98867.25;5047820;28;20500;-80
2023/05/25 10:19:59;;;;;;;12.80;3.20;;;14.40;99.90;;;15.13;96.22;98874.56;5049643;28;20472;-80
2023/05/25 10:22:36;;;;;;;7.43;3.10;;;14.50;99.90;;;15.18;94.98;98866.06;5047256;28;20495;-82
2023/05/25 10:25:13;;;;;;;8.07;3.60;;;14.50;99.90;;;15.21;92.97;98863.06;5044905;28;20849;-80
2023/05/25 10:27:55;;;;;;;16.93;3.70;;;14.50;99.90;;;15.27;92.45;98856.19;5047328;28;20471;-81
2023/05/25 10:30:26;;;;;;;9.10;2.83;;;14.50;99.90;;;15.31;94.28;98858.22;5044902;28;20461;-80